sensor_id;sensor_type;location;lat;lon;timestamp;P1;durP1;ratioP1;P2;durP2;ratioP2
66112;SDS011;52893;52.870;5.822;2023-03-04T00:00:40;13.98;;;2.20;;
66112;SDS011;52893;52.870;5.822;2023-03-04T00:03:10;18.38;;;1.63;;
66112;SDS011;52893;52.870;5.822;2023-03-04T00:05:40;13.02;;;1.58;;
66112;SDS011;52893;52.870;5.822;2023-03-04T00:08:07;11.82;;;1.33;;
66112;SDS011;52893;52.870;5.822;2023-03-04T00:10:34;10.98;;;1.77;;
66112;SDS011;52893;52.870;5.822;2023-03-04T00:13:03;11.65;;;1.80;;
66112;SDS011;52893;52.870;5.822;2023-03-04T00:15:30;19.70;;;2.45;;
66112;SDS011;52893;52.870;5.822;2023-03-04T00:17:57;11.55;;;1.85;;
66112;SDS011;52893;52.870;5.822;2023-03-04T00:20:24;16.27;;;1.60;;
66112;SDS011;52893;52.870;5.822;2023-03-04T00:22:52;17.05;;;1.67;;
66112;SDS011;52893;52.870;5.822;2023-03-04T00:25:19;20.42;;;2.47;;
66112;SDS011;52893;52.870;5.822;2023-03-04T00:27:47;16.35;;;2.00;;
66112;SDS011;52893;52.870;5.822;2023-03-04T00:30:15;10.15;;;1.40;;
66112;SDS011;52893;52.870;5.822;2023-03-04T00:32:43;17.15;;;2.25;;
66112;SDS011;52893;52.870;5.822;2023-03-04T00:35:10;8.23;;;2.05;;
66112;SDS011;52893;52.870;5.822;2023-03-04T00:37:37;19.10;;;2.50;;
66112;SDS011;52893;52.870;5.822;2023-03-04T00:40:05;21.08;;;2.05;;
66112;SDS011;52893;52.870;5.822;2023-03-04T00:42:33;12.45;;;1.52;;
66112;SDS011;52893;52.870;5.822;2023-03-04T00:45:00;13.98;;;1.58;;
66112;SDS011;52893;52.870;5.822;2023-03-04T00:47:29;17.70;;;2.05;;
66112;SDS011;52893;52.870;5.822;2023-03-04T00:49:56;19.60;;;1.90;;
66112;SDS011;52893;52.870;5.822;2023-03-04T00:52:24;14.85;;;1.92;;
66112;SDS011;52893;52.870;5.822;2023-03-04T00:54:51;12.60;;;1.30;;
66112;SDS011;52893;52.870;5.822;2023-03-04T00:57:18;13.25;;;1.73;;
66112;SDS011;52893;52.870;5.822;2023-03-04T00:59:46;16.95;;;1.58;;
66112;SDS011;52893;52.870;5.822;2023-03-04T01:02:13;8.27;;;1.55;;
66112;SDS011;52893;52.870;5.822;2023-03-04T01:04:42;14.10;;;1.30;;
66112;SDS011;52893;52.870;5.822;2023-03-04T01:07:09;17.85;;;2.55;;
66112;SDS011;52893;52.870;5.822;2023-03-04T01:09:37;13.73;;;1.92;;
66112;SDS011;52893;52.870;5.822;2023-03-04T01:12:04;17.88;;;1.42;;
66112;SDS011;52893;52.870;5.822;2023-03-04T01:14:31;9.65;;;1.15;;
66112;SDS011;52893;52.870;5.822;2023-03-04T01:16:58;16.85;;;1.67;;
66112;SDS011;52893;52.870;5.822;2023-03-04T01:19:26;15.75;;;1.60;;
66112;SDS011;52893;52.870;5.822;2023-03-04T01:21:54;9.88;;;1.30;;
66112;SDS011;52893;52.870;5.822;2023-03-04T01:24:21;9.25;;;1.17;;
66112;SDS011;52893;52.870;5.822;2023-03-04T01:26:49;13.70;;;1.52;;
66112;SDS011;52893;52.870;5.822;2023-03-04T01:29:16;13.77;;;1.27;;
66112;SDS011;52893;52.870;5.822;2023-03-04T01:31:43;15.20;;;1.90;;
66112;SDS011;52893;52.870;5.822;2023-03-04T01:34:11;17.55;;;1.63;;
66112;SDS011;52893;52.870;5.822;2023-03-04T01:36:39;15.18;;;2.20;;
66112;SDS011;52893;52.870;5.822;2023-03-04T01:39:07;22.92;;;2.05;;
66112;SDS011;52893;52.870;5.822;2023-03-04T01:41:35;10.05;;;1.52;;
66112;SDS011;52893;52.870;5.822;2023-03-04T01:44:02;13.63;;;1.17;;
66112;SDS011;52893;52.870;5.822;2023-03-04T01:46:29;14.93;;;1.35;;
66112;SDS011;52893;52.870;5.822;2023-03-04T01:48:57;17.80;;;1.65;;
66112;SDS011;52893;52.870;5.822;2023-03-04T01:51:25;11.80;;;1.17;;
66112;SDS011;52893;52.870;5.822;2023-03-04T01:53:53;9.77;;;1.05;;
66112;SDS011;52893;52.870;5.822;2023-03-04T01:56:23;15.30;;;1.10;;
66112;SDS011;52893;52.870;5.822;2023-03-04T01:59:05;8.00;;;1.55;;
66112;SDS011;52893;52.870;5.822;2023-03-04T02:01:33;17.45;;;1.67;;
66112;SDS011;52893;52.870;5.822;2023-03-04T02:04:00;9.18;;;1.40;;
66112;SDS011;52893;52.870;5.822;2023-03-04T02:06:28;13.73;;;1.60;;
66112;SDS011;52893;52.870;5.822;2023-03-04T02:08:56;11.82;;;1.15;;
66112;SDS011;52893;52.870;5.822;2023-03-04T02:11:25;8.38;;;1.50;;
66112;SDS011;52893;52.870;5.822;2023-03-04T02:13:53;11.25;;;1.25;;
66112;SDS011;52893;52.870;5.822;2023-03-04T02:16:21;11.98;;;1.38;;
66112;SDS011;52893;52.870;5.822;2023-03-04T02:18:48;8.90;;;1.23;;
66112;SDS011;52893;52.870;5.822;2023-03-04T02:21:17;14.40;;;1.77;;
66112;SDS011;52893;52.870;5.822;2023-03-04T02:23:48;17.25;;;1.98;;
66112;SDS011;52893;52.870;5.822;2023-03-04T02:26:25;18.17;;;1.52;;
66112;SDS011;52893;52.870;5.822;2023-03-04T02:28:55;11.48;;;1.55;;
66112;SDS011;52893;52.870;5.822;2023-03-04T02:31:25;15.48;;;1.60;;
66112;SDS011;52893;52.870;5.822;2023-03-04T02:33:56;10.30;;;1.08;;
66112;SDS011;52893;52.870;5.822;2023-03-04T02:36:27;19.85;;;1.77;;
66112;SDS011;52893;52.870;5.822;2023-03-04T02:38:59;14.85;;;1.70;;
66112;SDS011;52893;52.870;5.822;2023-03-04T02:41:30;14.10;;;1.95;;
66112;SDS011;52893;52.870;5.822;2023-03-04T02:43:59;13.63;;;1.58;;
66112;SDS011;52893;52.870;5.822;2023-03-04T02:46:27;19.13;;;1.88;;
66112;SDS011;52893;52.870;5.822;2023-03-04T02:48:54;10.63;;;1.85;;
66112;SDS011;52893;52.870;5.822;2023-03-04T02:51:21;12.25;;;2.17;;
66112;SDS011;52893;52.870;5.822;2023-03-04T02:53:49;16.73;;;1.98;;
66112;SDS011;52893;52.870;5.822;2023-03-04T02:56:16;11.73;;;1.17;;
66112;SDS011;52893;52.870;5.822;2023-03-04T02:58:44;8.75;;;0.88;;
66112;SDS011;52893;52.870;5.822;2023-03-04T03:01:12;18.42;;;1.70;;
66112;SDS011;52893;52.870;5.822;2023-03-04T03:03:40;13.35;;;1.40;;
66112;SDS011;52893;52.870;5.822;2023-03-04T03:06:09;16.02;;;1.35;;
66112;SDS011;52893;52.870;5.822;2023-03-04T03:08:37;10.80;;;1.52;;
66112;SDS011;52893;52.870;5.822;2023-03-04T03:11:04;12.15;;;1.15;;
66112;SDS011;52893;52.870;5.822;2023-03-04T03:13:33;14.15;;;1.80;;
66112;SDS011;52893;52.870;5.822;2023-03-04T03:16:02;14.32;;;1.33;;
66112;SDS011;52893;52.870;5.822;2023-03-04T03:18:29;10.88;;;2.40;;
66112;SDS011;52893;52.870;5.822;2023-03-04T03:20:56;14.80;;;1.33;;
66112;SDS011;52893;52.870;5.822;2023-03-04T03:23:23;11.65;;;1.00;;
66112;SDS011;52893;52.870;5.822;2023-03-04T03:25:51;8.10;;;1.20;;
66112;SDS011;52893;52.870;5.822;2023-03-04T03:28:18;5.72;;;1.10;;
66112;SDS011;52893;52.870;5.822;2023-03-04T03:30:45;8.65;;;1.23;;
66112;SDS011;52893;52.870;5.822;2023-03-04T03:33:14;9.98;;;0.98;;
66112;SDS011;52893;52.870;5.822;2023-03-04T03:35:41;10.80;;;1.17;;
66112;SDS011;52893;52.870;5.822;2023-03-04T03:38:08;6.63;;;1.15;;
66112;SDS011;52893;52.870;5.822;2023-03-04T03:40:36;11.23;;;1.05;;
66112;SDS011;52893;52.870;5.822;2023-03-04T03:43:03;13.25;;;1.45;;
66112;SDS011;52893;52.870;5.822;2023-03-04T03:45:30;9.55;;;1.30;;
66112;SDS011;52893;52.870;5.822;2023-03-04T03:47:57;8.00;;;1.45;;
66112;SDS011;52893;52.870;5.822;2023-03-04T03:50:26;12.27;;;1.58;;
66112;SDS011;52893;52.870;5.822;2023-03-04T03:52:54;8.05;;;1.20;;
66112;SDS011;52893;52.870;5.822;2023-03-04T03:55:21;5.85;;;0.80;;
66112;SDS011;52893;52.870;5.822;2023-03-04T03:57:49;4.85;;;1.00;;
66112;SDS011;52893;52.870;5.822;2023-03-04T04:00:16;8.45;;;1.02;;
66112;SDS011;52893;52.870;5.822;2023-03-04T04:02:44;4.20;;;0.90;;
66112;SDS011;52893;52.870;5.822;2023-03-04T04:05:11;11.00;;;1.20;;
66112;SDS011;52893;52.870;5.822;2023-03-04T04:07:40;12.80;;;1.33;;
66112;SDS011;52893;52.870;5.822;2023-03-04T04:10:09;10.02;;;1.20;;
66112;SDS011;52893;52.870;5.822;2023-03-04T04:12:37;8.88;;;1.15;;
66112;SDS011;52893;52.870;5.822;2023-03-04T04:15:05;9.05;;;1.33;;
66112;SDS011;52893;52.870;5.822;2023-03-04T04:17:33;13.43;;;1.52;;
66112;SDS011;52893;52.870;5.822;2023-03-04T04:20:00;15.45;;;0.95;;
66112;SDS011;52893;52.870;5.822;2023-03-04T04:22:27;9.95;;;1.00;;
66112;SDS011;52893;52.870;5.822;2023-03-04T04:24:56;9.45;;;1.23;;
66112;SDS011;52893;52.870;5.822;2023-03-04T04:27:23;9.88;;;1.30;;
66112;SDS011;52893;52.870;5.822;2023-03-04T04:29:51;8.70;;;1.30;;
66112;SDS011;52893;52.870;5.822;2023-03-04T04:32:18;8.40;;;1.20;;
66112;SDS011;52893;52.870;5.822;2023-03-04T04:34:45;7.75;;;0.85;;
66112;SDS011;52893;52.870;5.822;2023-03-04T04:37:12;7.25;;;1.05;;
66112;SDS011;52893;52.870;5.822;2023-03-04T04:39:40;9.00;;;0.90;;
66112;SDS011;52893;52.870;5.822;2023-03-04T04:42:09;7.22;;;0.95;;
66112;SDS011;52893;52.870;5.822;2023-03-04T04:44:36;4.70;;;0.88;;
66112;SDS011;52893;52.870;5.822;2023-03-04T04:47:04;7.05;;;1.10;;
66112;SDS011;52893;52.870;5.822;2023-03-04T04:49:32;8.18;;;0.93;;
66112;SDS011;52893;52.870;5.822;2023-03-04T04:51:59;5.93;;;1.10;;
66112;SDS011;52893;52.870;5.822;2023-03-04T04:54:27;11.25;;;1.30;;
66112;SDS011;52893;52.870;5.822;2023-03-04T04:56:54;9.27;;;0.80;;
66112;SDS011;52893;52.870;5.822;2023-03-04T04:59:23;8.65;;;1.00;;
66112;SDS011;52893;52.870;5.822;2023-03-04T05:01:50;7.22;;;1.20;;
66112;SDS011;52893;52.870;5.822;2023-03-04T05:04:17;7.50;;;1.08;;
66112;SDS011;52893;52.870;5.822;2023-03-04T05:06:44;10.98;;;1.30;;
66112;SDS011;52893;52.870;5.822;2023-03-04T05:09:12;6.60;;;0.65;;
66112;SDS011;52893;52.870;5.822;2023-03-04T05:11:39;7.80;;;0.70;;
66112;SDS011;52893;52.870;5.822;2023-03-04T05:14:06;4.82;;;1.08;;
66112;SDS011;52893;52.870;5.822;2023-03-04T05:16:35;9.05;;;1.27;;
66112;SDS011;52893;52.870;5.822;2023-03-04T05:19:02;5.30;;;0.80;;
66112;SDS011;52893;52.870;5.822;2023-03-04T05:21:29;5.50;;;0.88;;
66112;SDS011;52893;52.870;5.822;2023-03-04T05:23:57;7.25;;;1.00;;
66112;SDS011;52893;52.870;5.822;2023-03-04T05:26:24;5.15;;;1.02;;
66112;SDS011;52893;52.870;5.822;2023-03-04T05:28:51;6.90;;;1.17;;
66112;SDS011;52893;52.870;5.822;2023-03-04T05:31:18;6.97;;;0.80;;
66112;SDS011;52893;52.870;5.822;2023-03-04T05:33:47;4.53;;;0.68;;
66112;SDS011;52893;52.870;5.822;2023-03-04T05:36:14;9.80;;;1.02;;
66112;SDS011;52893;52.870;5.822;2023-03-04T05:38:41;5.90;;;0.68;;
66112;SDS011;52893;52.870;5.822;2023-03-04T05:41:09;3.97;;;0.82;;
66112;SDS011;52893;52.870;5.822;2023-03-04T05:43:36;5.47;;;0.73;;
66112;SDS011;52893;52.870;5.822;2023-03-04T05:46:07;7.72;;;1.15;;
66112;SDS011;52893;52.870;5.822;2023-03-04T05:48:37;3.40;;;0.45;;
66112;SDS011;52893;52.870;5.822;2023-03-04T05:51:06;4.53;;;1.00;;
66112;SDS011;52893;52.870;5.822;2023-03-04T05:53:33;5.32;;;0.80;;
66112;SDS011;52893;52.870;5.822;2023-03-04T05:56:05;5.03;;;0.60;;
66112;SDS011;52893;52.870;5.822;2023-03-04T05:58:33;4.93;;;0.77;;
66112;SDS011;52893;52.870;5.822;2023-03-04T06:01:00;2.40;;;0.45;;
66112;SDS011;52893;52.870;5.822;2023-03-04T06:03:28;4.07;;;0.50;;
66112;SDS011;52893;52.870;5.822;2023-03-04T06:05:55;8.93;;;0.90;;
66112;SDS011;52893;52.870;5.822;2023-03-04T06:08:24;5.57;;;0.70;;
66112;SDS011;52893;52.870;5.822;2023-03-04T06:10:53;5.22;;;0.65;;
66112;SDS011;52893;52.870;5.822;2023-03-04T06:13:21;12.70;;;1.08;;
66112;SDS011;52893;52.870;5.822;2023-03-04T06:15:52;7.28;;;0.85;;
66112;SDS011;52893;52.870;5.822;2023-03-04T06:18:20;5.97;;;1.08;;
66112;SDS011;52893;52.870;5.822;2023-03-04T06:20:47;3.50;;;0.73;;
66112;SDS011;52893;52.870;5.822;2023-03-04T06:23:15;2.38;;;0.65;;
66112;SDS011;52893;52.870;5.822;2023-03-04T06:25:44;7.25;;;0.93;;
66112;SDS011;52893;52.870;5.822;2023-03-04T06:28:11;7.15;;;0.93;;
66112;SDS011;52893;52.870;5.822;2023-03-04T06:30:39;7.10;;;0.65;;
66112;SDS011;52893;52.870;5.822;2023-03-04T06:33:06;9.18;;;1.10;;
66112;SDS011;52893;52.870;5.822;2023-03-04T06:35:33;3.30;;;0.70;;
66112;SDS011;52893;52.870;5.822;2023-03-04T06:38:00;4.22;;;1.00;;
66112;SDS011;52893;52.870;5.822;2023-03-04T06:40:27;7.70;;;0.90;;
66112;SDS011;52893;52.870;5.822;2023-03-04T06:42:56;7.93;;;0.98;;
66112;SDS011;52893;52.870;5.822;2023-03-04T06:45:24;7.47;;;0.95;;
66112;SDS011;52893;52.870;5.822;2023-03-04T06:47:51;12.70;;;0.90;;
66112;SDS011;52893;52.870;5.822;2023-03-04T06:50:18;6.30;;;2.15;;
66112;SDS011;52893;52.870;5.822;2023-03-04T06:52:45;11.30;;;1.23;;
66112;SDS011;52893;52.870;5.822;2023-03-04T06:55:14;6.45;;;1.70;;
66112;SDS011;52893;52.870;5.822;2023-03-04T06:57:41;13.77;;;2.10;;
66112;SDS011;52893;52.870;5.822;2023-03-04T07:00:10;9.60;;;3.28;;
66112;SDS011;52893;52.870;5.822;2023-03-04T07:02:38;3.10;;;1.70;;
66112;SDS011;52893;52.870;5.822;2023-03-04T07:05:05;12.80;;;3.65;;
66112;SDS011;52893;52.870;5.822;2023-03-04T07:07:33;9.07;;;5.13;;
66112;SDS011;52893;52.870;5.822;2023-03-04T07:10:01;63.10;;;26.35;;
66112;SDS011;52893;52.870;5.822;2023-03-04T07:12:28;48.90;;;19.48;;
66112;SDS011;52893;52.870;5.822;2023-03-04T07:14:55;142.05;;;53.22;;
66112;SDS011;52893;52.870;5.822;2023-03-04T07:17:24;173.35;;;65.57;;
66112;SDS011;52893;52.870;5.822;2023-03-04T07:19:51;41.85;;;14.43;;
66112;SDS011;52893;52.870;5.822;2023-03-04T07:22:18;82.20;;;32.28;;
66112;SDS011;52893;52.870;5.822;2023-03-04T07:24:45;135.70;;;53.20;;
66112;SDS011;52893;52.870;5.822;2023-03-04T07:27:13;98.03;;;47.28;;
66112;SDS011;52893;52.870;5.822;2023-03-04T07:29:40;20.27;;;6.53;;
66112;SDS011;52893;52.870;5.822;2023-03-04T07:32:07;10.00;;;1.83;;
66112;SDS011;52893;52.870;5.822;2023-03-04T07:34:36;6.47;;;0.98;;
66112;SDS011;52893;52.870;5.822;2023-03-04T07:37:03;1.48;;;0.50;;
66112;SDS011;52893;52.870;5.822;2023-03-04T07:39:31;5.43;;;0.93;;
66112;SDS011;52893;52.870;5.822;2023-03-04T07:41:58;18.55;;;6.50;;
66112;SDS011;52893;52.870;5.822;2023-03-04T07:44:25;34.47;;;13.70;;
66112;SDS011;52893;52.870;5.822;2023-03-04T07:46:52;32.65;;;12.07;;
66112;SDS011;52893;52.870;5.822;2023-03-04T07:49:20;10.35;;;5.53;;
66112;SDS011;52893;52.870;5.822;2023-03-04T07:51:49;28.05;;;12.07;;
66112;SDS011;52893;52.870;5.822;2023-03-04T07:54:16;38.53;;;14.82;;
66112;SDS011;52893;52.870;5.822;2023-03-04T07:56:44;63.42;;;26.20;;
66112;SDS011;52893;52.870;5.822;2023-03-04T07:59:12;24.10;;;7.25;;
66112;SDS011;52893;52.870;5.822;2023-03-04T08:01:39;28.25;;;12.63;;
66112;SDS011;52893;52.870;5.822;2023-03-04T08:04:06;19.58;;;7.78;;
66112;SDS011;52893;52.870;5.822;2023-03-04T08:06:34;22.75;;;8.38;;
66112;SDS011;52893;52.870;5.822;2023-03-04T08:09:03;10.32;;;3.58;;
66112;SDS011;52893;52.870;5.822;2023-03-04T08:11:32;3.50;;;0.80;;
66112;SDS011;52893;52.870;5.822;2023-03-04T08:14:00;1.13;;;0.40;;
66112;SDS011;52893;52.870;5.822;2023-03-04T08:16:27;1.48;;;0.47;;
66112;SDS011;52893;52.870;5.822;2023-03-04T08:18:55;1.00;;;0.50;;
66112;SDS011;52893;52.870;5.822;2023-03-04T08:21:24;2.30;;;0.88;;
66112;SDS011;52893;52.870;5.822;2023-03-04T08:23:52;3.35;;;0.50;;
66112;SDS011;52893;52.870;5.822;2023-03-04T08:26:22;4.43;;;1.02;;
66112;SDS011;52893;52.870;5.822;2023-03-04T08:28:51;13.85;;;3.30;;
66112;SDS011;52893;52.870;5.822;2023-03-04T08:31:19;11.75;;;1.98;;
66112;SDS011;52893;52.870;5.822;2023-03-04T08:33:47;8.90;;;1.48;;
66112;SDS011;52893;52.870;5.822;2023-03-04T08:36:16;17.52;;;8.02;;
66112;SDS011;52893;52.870;5.822;2023-03-04T08:38:44;19.92;;;7.38;;
66112;SDS011;52893;52.870;5.822;2023-03-04T08:41:11;23.65;;;11.55;;
66112;SDS011;52893;52.870;5.822;2023-03-04T08:43:42;12.88;;;5.57;;
66112;SDS011;52893;52.870;5.822;2023-03-04T08:46:10;9.82;;;3.08;;
66112;SDS011;52893;52.870;5.822;2023-03-04T08:48:38;12.75;;;2.05;;
66112;SDS011;52893;52.870;5.822;2023-03-04T08:51:06;23.55;;;8.57;;
66112;SDS011;52893;52.870;5.822;2023-03-04T08:53:35;11.15;;;1.75;;
66112;SDS011;52893;52.870;5.822;2023-03-04T08:56:03;10.73;;;1.40;;
66112;SDS011;52893;52.870;5.822;2023-03-04T08:58:31;9.13;;;1.13;;
66112;SDS011;52893;52.870;5.822;2023-03-04T09:01:00;11.07;;;1.13;;
66112;SDS011;52893;52.870;5.822;2023-03-04T09:03:28;8.10;;;1.05;;
66112;SDS011;52893;52.870;5.822;2023-03-04T09:05:55;8.70;;;0.90;;
66112;SDS011;52893;52.870;5.822;2023-03-04T09:08:23;10.13;;;0.88;;
66112;SDS011;52893;52.870;5.822;2023-03-04T09:10:51;6.53;;;0.77;;
66112;SDS011;52893;52.870;5.822;2023-03-04T09:13:20;8.98;;;1.05;;
66112;SDS011;52893;52.870;5.822;2023-03-04T09:15:49;7.05;;;1.35;;
66112;SDS011;52893;52.870;5.822;2023-03-04T09:18:20;18.35;;;1.42;;
66112;SDS011;52893;52.870;5.822;2023-03-04T09:20:49;6.20;;;1.05;;
66112;SDS011;52893;52.870;5.822;2023-03-04T09:23:17;5.97;;;0.93;;
66112;SDS011;52893;52.870;5.822;2023-03-04T09:25:46;12.57;;;1.23;;
66112;SDS011;52893;52.870;5.822;2023-03-04T09:28:14;9.68;;;1.30;;
66112;SDS011;52893;52.870;5.822;2023-03-04T09:30:42;7.07;;;1.23;;
66112;SDS011;52893;52.870;5.822;2023-03-04T09:33:09;8.82;;;0.90;;
66112;SDS011;52893;52.870;5.822;2023-03-04T09:35:38;8.48;;;1.33;;
66112;SDS011;52893;52.870;5.822;2023-03-04T09:38:06;8.95;;;1.10;;
66112;SDS011;52893;52.870;5.822;2023-03-04T09:40:36;8.50;;;0.93;;
66112;SDS011;52893;52.870;5.822;2023-03-04T09:43:06;9.40;;;1.75;;
66112;SDS011;52893;52.870;5.822;2023-03-04T09:45:41;10.88;;;1.40;;
66112;SDS011;52893;52.870;5.822;2023-03-04T09:48:15;14.70;;;1.30;;
66112;SDS011;52893;52.870;5.822;2023-03-04T09:50:50;8.90;;;1.30;;
66112;SDS011;52893;52.870;5.822;2023-03-04T09:53:32;6.10;;;1.58;;
66112;SDS011;52893;52.870;5.822;2023-03-04T09:56:05;10.00;;;1.38;;
66112;SDS011;52893;52.870;5.822;2023-03-04T09:58:37;14.82;;;1.63;;
66112;SDS011;52893;52.870;5.822;2023-03-04T10:01:11;17.10;;;1.95;;
66112;SDS011;52893;52.870;5.822;2023-03-04T10:03:48;10.40;;;1.40;;
66112;SDS011;52893;52.870;5.822;2023-03-04T10:06:21;15.68;;;2.05;;
66112;SDS011;52893;52.870;5.822;2023-03-04T10:08:50;20.33;;;2.60;;
66112;SDS011;52893;52.870;5.822;2023-03-04T10:11:22;11.13;;;1.65;;
66112;SDS011;52893;52.870;5.822;2023-03-04T10:13:55;18.25;;;2.58;;
66112;SDS011;52893;52.870;5.822;2023-03-04T10:16:28;20.98;;;2.10;;
66112;SDS011;52893;52.870;5.822;2023-03-04T10:19:01;16.02;;;2.30;;
66112;SDS011;52893;52.870;5.822;2023-03-04T10:21:44;13.07;;;1.77;;
66112;SDS011;52893;52.870;5.822;2023-03-04T10:24:13;24.38;;;2.42;;
66112;SDS011;52893;52.870;5.822;2023-03-04T10:26:43;11.38;;;2.45;;
66112;SDS011;52893;52.870;5.822;2023-03-04T10:29:13;14.23;;;2.15;;
66112;SDS011;52893;52.870;5.822;2023-03-04T10:31:43;18.90;;;1.67;;
66112;SDS011;52893;52.870;5.822;2023-03-04T10:34:11;12.05;;;2.75;;
66112;SDS011;52893;52.870;5.822;2023-03-04T10:36:51;17.90;;;1.88;;
66112;SDS011;52893;52.870;5.822;2023-03-04T10:39:24;13.65;;;1.55;;
66112;SDS011;52893;52.870;5.822;2023-03-04T10:41:54;12.23;;;2.03;;
66112;SDS011;52893;52.870;5.822;2023-03-04T10:44:26;15.15;;;3.33;;
66112;SDS011;52893;52.870;5.822;2023-03-04T10:46:55;14.02;;;1.83;;
66112;SDS011;52893;52.870;5.822;2023-03-04T10:49:24;19.10;;;5.57;;
66112;SDS011;52893;52.870;5.822;2023-03-04T10:51:54;14.52;;;3.30;;
66112;SDS011;52893;52.870;5.822;2023-03-04T10:54:28;11.70;;;2.00;;
66112;SDS011;52893;52.870;5.822;2023-03-04T10:56:58;8.38;;;2.03;;
66112;SDS011;52893;52.870;5.822;2023-03-04T10:59:29;11.35;;;3.20;;
66112;SDS011;52893;52.870;5.822;2023-03-04T11:01:58;9.75;;;2.35;;
66112;SDS011;52893;52.870;5.822;2023-03-04T11:04:31;10.77;;;1.60;;
66112;SDS011;52893;52.870;5.822;2023-03-04T11:09:33;12.88;;;1.88;;
66112;SDS011;52893;52.870;5.822;2023-03-04T11:12:01;25.92;;;8.98;;
66112;SDS011;52893;52.870;5.822;2023-03-04T11:14:36;41.50;;;13.27;;
66112;SDS011;52893;52.870;5.822;2023-03-04T11:17:15;42.85;;;13.60;;
66112;SDS011;52893;52.870;5.822;2023-03-04T11:19:46;62.22;;;22.20;;
66112;SDS011;52893;52.870;5.822;2023-03-04T11:22:16;28.77;;;9.73;;
66112;SDS011;52893;52.870;5.822;2023-03-04T11:24:46;17.60;;;8.75;;
66112;SDS011;52893;52.870;5.822;2023-03-04T11:27:23;10.30;;;1.75;;
66112;SDS011;52893;52.870;5.822;2023-03-04T11:30:03;8.55;;;2.30;;
66112;SDS011;52893;52.870;5.822;2023-03-04T11:32:43;5.28;;;0.95;;
66112;SDS011;52893;52.870;5.822;2023-03-04T11:35:17;7.28;;;1.88;;
66112;SDS011;52893;52.870;5.822;2023-03-04T11:37:52;9.85;;;0.98;;
66112;SDS011;52893;52.870;5.822;2023-03-04T11:40:26;9.38;;;1.35;;
66112;SDS011;52893;52.870;5.822;2023-03-04T11:42:59;5.63;;;0.70;;
66112;SDS011;52893;52.870;5.822;2023-03-04T11:45:30;3.80;;;0.60;;
66112;SDS011;52893;52.870;5.822;2023-03-04T11:48:12;8.40;;;1.02;;
66112;SDS011;52893;52.870;5.822;2023-03-04T11:50:46;4.30;;;0.68;;
66112;SDS011;52893;52.870;5.822;2023-03-04T11:53:25;0.55;;;0.22;;
66112;SDS011;52893;52.870;5.822;2023-03-04T11:56:09;6.40;;;0.60;;
66112;SDS011;52893;52.870;5.822;2023-03-04T12:01:46;6.75;;;1.25;;
66112;SDS011;52893;52.870;5.822;2023-03-04T12:04:32;5.95;;;1.10;;
66112;SDS011;52893;52.870;5.822;2023-03-04T12:07:25;8.57;;;0.88;;
66112;SDS011;52893;52.870;5.822;2023-03-04T12:10:20;9.63;;;1.15;;
66112;SDS011;52893;52.870;5.822;2023-03-04T12:13:05;8.95;;;1.20;;
66112;SDS011;52893;52.870;5.822;2023-03-04T12:15:48;10.32;;;3.30;;
66112;SDS011;52893;52.870;5.822;2023-03-04T12:18:22;36.28;;;14.88;;
66112;SDS011;52893;52.870;5.822;2023-03-04T12:21:10;34.85;;;10.65;;
66112;SDS011;52893;52.870;5.822;2023-03-04T12:23:47;15.98;;;5.28;;
66112;SDS011;52893;52.870;5.822;2023-03-04T12:26:28;37.40;;;12.40;;
66112;SDS011;52893;52.870;5.822;2023-03-04T12:29:06;24.27;;;5.93;;
66112;SDS011;52893;52.870;5.822;2023-03-04T12:31:40;19.23;;;5.07;;
66112;SDS011;52893;52.870;5.822;2023-03-04T12:34:19;18.15;;;5.30;;
66112;SDS011;52893;52.870;5.822;2023-03-04T12:37:19;10.60;;;2.95;;
66112;SDS011;52893;52.870;5.822;2023-03-04T12:39:58;11.80;;;1.98;;
66112;SDS011;52893;52.870;5.822;2023-03-04T12:42:39;5.30;;;1.00;;
66112;SDS011;52893;52.870;5.822;2023-03-04T12:45:18;6.78;;;1.30;;
66112;SDS011;52893;52.870;5.822;2023-03-04T12:47:53;12.57;;;3.17;;
66112;SDS011;52893;52.870;5.822;2023-03-04T12:50:29;12.90;;;4.32;;
66112;SDS011;52893;52.870;5.822;2023-03-04T12:53:05;23.02;;;6.65;;
66112;SDS011;52893;52.870;5.822;2023-03-04T12:55:43;16.98;;;4.53;;
66112;SDS011;52893;52.870;5.822;2023-03-04T12:58:14;25.73;;;7.93;;
66112;SDS011;52893;52.870;5.822;2023-03-04T13:00:47;38.13;;;9.27;;
66112;SDS011;52893;52.870;5.822;2023-03-04T13:03:20;44.72;;;14.27;;
66112;SDS011;52893;52.870;5.822;2023-03-04T13:05:55;31.08;;;9.98;;
66112;SDS011;52893;52.870;5.822;2023-03-04T13:08:47;11.65;;;4.93;;
66112;SDS011;52893;52.870;5.822;2023-03-04T13:14:32;5.43;;;1.83;;
66112;SDS011;52893;52.870;5.822;2023-03-04T13:20:12;12.85;;;1.60;;
66112;SDS011;52893;52.870;5.822;2023-03-04T13:22:46;10.23;;;1.52;;
66112;SDS011;52893;52.870;5.822;2023-03-04T13:25:29;16.90;;;2.17;;
66112;SDS011;52893;52.870;5.822;2023-03-04T13:28:05;15.82;;;1.95;;
66112;SDS011;52893;52.870;5.822;2023-03-04T13:33:53;13.23;;;1.40;;
66112;SDS011;52893;52.870;5.822;2023-03-04T13:36:30;14.20;;;1.50;;
66112;SDS011;52893;52.870;5.822;2023-03-04T13:39:31;13.45;;;1.92;;
66112;SDS011;52893;52.870;5.822;2023-03-04T13:42:00;14.05;;;1.55;;
66112;SDS011;52893;52.870;5.822;2023-03-04T13:44:33;15.73;;;1.60;;
66112;SDS011;52893;52.870;5.822;2023-03-04T13:47:24;14.40;;;1.58;;
66112;SDS011;52893;52.870;5.822;2023-03-04T13:58:50;12.60;;;1.25;;
66112;SDS011;52893;52.870;5.822;2023-03-04T14:01:28;7.20;;;1.48;;
66112;SDS011;52893;52.870;5.822;2023-03-04T14:03:59;16.45;;;1.80;;
66112;SDS011;52893;52.870;5.822;2023-03-04T14:06:28;11.85;;;1.48;;
66112;SDS011;52893;52.870;5.822;2023-03-04T14:08:56;11.07;;;1.35;;
66112;SDS011;52893;52.870;5.822;2023-03-04T14:11:26;7.40;;;1.15;;
66112;SDS011;52893;52.870;5.822;2023-03-04T14:13:56;13.00;;;1.88;;
66112;SDS011;52893;52.870;5.822;2023-03-04T14:16:26;12.73;;;1.45;;
66112;SDS011;52893;52.870;5.822;2023-03-04T14:19:00;8.43;;;1.67;;
66112;SDS011;52893;52.870;5.822;2023-03-04T14:21:29;15.82;;;1.70;;
66112;SDS011;52893;52.870;5.822;2023-03-04T14:24:00;13.82;;;1.42;;
66112;SDS011;52893;52.870;5.822;2023-03-04T14:26:30;16.35;;;1.95;;
66112;SDS011;52893;52.870;5.822;2023-03-04T14:28:58;12.80;;;2.60;;
66112;SDS011;52893;52.870;5.822;2023-03-04T14:31:28;21.52;;;2.90;;
66112;SDS011;52893;52.870;5.822;2023-03-04T14:33:57;19.30;;;3.75;;
66112;SDS011;52893;52.870;5.822;2023-03-04T14:36:28;19.25;;;2.85;;
66112;SDS011;52893;52.870;5.822;2023-03-04T14:38:59;17.95;;;3.90;;
66112;SDS011;52893;52.870;5.822;2023-03-04T14:41:29;15.70;;;2.03;;
66112;SDS011;52893;52.870;5.822;2023-03-04T14:44:00;19.88;;;2.08;;
66112;SDS011;52893;52.870;5.822;2023-03-04T14:46:31;21.00;;;2.70;;
66112;SDS011;52893;52.870;5.822;2023-03-04T14:49:08;9.32;;;1.33;;
66112;SDS011;52893;52.870;5.822;2023-03-04T14:51:40;12.35;;;1.52;;
66112;SDS011;52893;52.870;5.822;2023-03-04T14:54:24;13.48;;;1.98;;
66112;SDS011;52893;52.870;5.822;2023-03-04T14:57:00;9.63;;;1.88;;
66112;SDS011;52893;52.870;5.822;2023-03-04T14:59:46;12.82;;;1.80;;
66112;SDS011;52893;52.870;5.822;2023-03-04T15:02:17;9.63;;;1.23;;
66112;SDS011;52893;52.870;5.822;2023-03-04T15:04:51;7.30;;;1.45;;
66112;SDS011;52893;52.870;5.822;2023-03-04T15:07:20;6.63;;;0.95;;
66112;SDS011;52893;52.870;5.822;2023-03-04T15:09:53;8.13;;;1.15;;
66112;SDS011;52893;52.870;5.822;2023-03-04T15:12:22;11.68;;;1.40;;
66112;SDS011;52893;52.870;5.822;2023-03-04T15:14:52;17.25;;;2.10;;
66112;SDS011;52893;52.870;5.822;2023-03-04T15:17:22;13.10;;;2.03;;
66112;SDS011;52893;52.870;5.822;2023-03-04T15:20:00;7.65;;;1.15;;